Time;durP1;ratioP1;P1;durP2;ratioP2;P2;SDS_P1;SDS_P2;PMS_P1;PMS_P2;Temp;Humidity;BMP_temperature;BMP_pressure;BME280_temperature;BME280_humidity;BME280_pressure;Samples;Min_cycle;Max_cycle;Signal;HPM_P1;HPM_P2
2021/07/03 00:01:11;;;;;;;7.80;1.80;;;;;;;;;;6085589;29;20251;-72
2021/07/03 00:04:12;;;;;;;69.72;6.22;;;;;;;;;;6093821;29;21080;-73
2021/07/03 00:07:14;;;;;;;26.45;3.80;;;;;;;;;;6098265;29;20047;-73
2021/07/03 00:10:16;;;;;;;23.58;3.50;;;;;;;;;;6086291;29;20103;-72
2021/07/03 00:13:17;;;;;;;49.95;5.35;;;;;;;;;;6086029;29;20203;-72
2021/07/03 00:16:20;;;;;;;27.17;3.40;;;;;;;;;;6097879;29;20048;-73
2021/07/03 00:19:22;;;;;;;9.93;2.75;;;;;;;;;;6091870;29;20048;-73
2021/07/03 00:22:23;;;;;;;10.60;2.70;;;;;;;;;;6091157;29;20085;-74
2021/07/03 00:25:25;;;;;;;8.63;2.08;;;;;;;;;;6095335;29;20492;-75
2021/07/03 00:28:27;;;;;;;8.88;2.38;;;;;;;;;;6103271;29;20138;-74
2021/07/03 00:31:30;;;;;;;8.07;2.30;;;;;;;;;;6099368;29;20149;-74
2021/07/03 00:34:33;;;;;;;8.02;2.20;;;;;;;;;;6103702;29;20044;-74
2021/07/03 00:37:34;;;;;;;4.97;2.30;;;;;;;;;;6096105;29;20072;-74
2021/07/03 00:40:36;;;;;;;8.20;2.28;;;;;;;;;;6094200;29;20057;-78
2021/07/03 00:43:37;;;;;;;6.60;2.40;;;;;;;;;;6095351;29;20505;-77
2021/07/03 00:46:41;;;;;;;6.95;2.40;;;;;;;;;;6098391;29;20055;-72
2021/07/03 00:49:42;;;;;;;;;;;;;;;;;;6097371;29;20058;-72
2021/07/03 00:52:45;;;;;;;5.20;2.15;;;;;;;;;;6090577;29;20035;-73
2021/07/03 00:55:46;;;;;;;11.23;3.00;;;;;;;;;;6092999;29;20131;-72
2021/07/03 00:58:48;;;;;;;7.45;3.50;;;;;;;;;;6089560;29;20044;-73
2021/07/03 01:01:51;;;;;;;5.20;3.20;;;;;;;;;;6093010;29;20166;-72
2021/07/03 01:04:53;;;;;;;10.40;2.55;;;;;;;;;;6084719;29;20044;-72
2021/07/03 01:07:55;;;;;;;7.05;3.20;;;;;;;;;;6097191;29;20089;-73
2021/07/03 01:10:56;;;;;;;4.97;3.00;;;;;;;;;;6090861;29;20052;-73
2021/07/03 01:13:59;;;;;;;7.55;3.50;;;;;;;;;;6100820;29;20115;-73
2021/07/03 01:17:04;;;;;;;12.18;4.03;;;;;;;;;;6090056;29;20502;-71
2021/07/03 01:20:07;;;;;;;10.35;4.75;;;;;;;;;;6091777;29;20048;-72
2021/07/03 01:23:09;;;;;;;7.13;4.93;;;;;;;;;;6087062;29;20436;-71
2021/07/03 01:26:11;;;;;;;9.77;5.85;;;;;;;;;;6087780;29;20045;-73
2021/07/03 01:29:13;;;;;;;11.45;6.22;;;;;;;;;;6098262;29;20074;-71
2021/07/03 01:32:15;;;;;;;10.45;6.43;;;;;;;;;;6086025;29;20523;-72
2021/07/03 01:35:16;;;;;;;11.68;7.43;;;;;;;;;;6089774;29;20100;-72
2021/07/03 01:38:21;;;;;;;14.85;6.32;;;;;;;;;;6077751;29;20056;-72
2021/07/03 01:41:22;;;;;;;40.17;10.18;;;;;;;;;;6086747;29;20052;-72
2021/07/03 01:44:28;;;;;;;11.80;7.53;;;;;;;;;;6088941;29;20139;-74
2021/07/03 01:47:29;;;;;;;13.18;7.55;;;;;;;;;;6091265;29;20061;-75
2021/07/03 01:50:31;;;;;;;15.20;8.65;;;;;;;;;;6088885;29;20128;-75
2021/07/03 01:53:34;;;;;;;12.68;8.25;;;;;;;;;;6099311;29;20130;-74
2021/07/03 01:56:39;;;;;;;9.77;7.53;;;;;;;;;;6103607;29;20123;-75
2021/07/03 01:59:41;;;;;;;10.20;7.68;;;;;;;;;;6107728;29;20048;-74
2021/07/03 02:02:43;;;;;;;13.25;8.25;;;;;;;;;;6110364;29;20178;-74
2021/07/03 02:05:45;;;;;;;18.70;7.88;;;;;;;;;;6100782;29;20134;-75
2021/07/03 02:08:48;;;;;;;11.73;8.15;;;;;;;;;;6107190;29;20567;-75
2021/07/03 02:11:50;;;;;;;10.05;7.32;;;;;;;;;;6102127;29;20039;-74
2021/07/03 02:14:51;;;;;;;14.23;8.00;;;;;;;;;;6099662;29;20050;-73
2021/07/03 02:17:53;;;;;;;12.02;8.10;;;;;;;;;;6096395;29;20143;-74
2021/07/03 02:20:54;;;;;;;14.60;8.43;;;;;;;;;;6100880;29;20052;-74
2021/07/03 02:23:57;;;;;;;12.30;8.23;;;;;;;;;;6100038;29;20171;-74
2021/07/03 02:26:59;;;;;;;13.27;7.53;;;;;;;;;;6101989;29;20131;-74
2021/07/03 02:30:02;;;;;;;13.27;8.52;;;;;;;;;;6092965;29;20130;-74
2021/07/03 02:33:03;;;;;;;10.90;7.63;;;;;;;;;;6102549;29;20054;-74
2021/07/03 02:36:05;;;;;;;13.38;8.10;;;;;;;;;;6100515;29;20079;-74
2021/07/03 02:39:08;;;;;;;9.93;8.20;;;;;;;;;;6099619;29;20147;-74
2021/07/03 02:42:10;;;;;;;10.75;7.50;;;;;;;;;;6093177;29;20045;-74
2021/07/03 02:45:14;;;;;;;10.73;7.93;;;;;;;;;;6098018;29;20080;-74
2021/07/03 02:48:15;;;;;;;9.20;7.03;;;;;;;;;;6100820;29;20158;-74
2021/07/03 02:51:17;;;;;;;9.15;7.07;;;;;;;;;;6100493;29;20096;-74
2021/07/03 02:54:20;;;;;;;12.15;7.30;;;;;;;;;;6096583;29;20131;-74
2021/07/03 02:57:21;;;;;;;11.57;7.20;;;;;;;;;;6097741;29;20726;-74
2021/07/03 03:00:23;;;;;;;11.63;6.60;;;;;;;;;;6103926;29;20139;-74
2021/07/03 03:03:25;;;;;;;11.90;7.13;;;;;;;;;;6107839;29;20142;-74
2021/07/03 03:06:26;;;;;;;12.05;7.05;;;;;;;;;;6103209;29;20146;-74
2021/07/03 03:09:29;;;;;;;11.70;6.68;;;;;;;;;;6107624;29;20083;-74
2021/07/03 03:12:31;;;;;;;7.93;5.63;;;;;;;;;;6099058;29;20121;-80
2021/07/03 03:15:33;;;;;;;9.48;6.20;;;;;;;;;;6100674;29;20525;-76
2021/07/03 03:18:34;;;;;;;8.20;5.82;;;;;;;;;;6096728;29;20049;-73
2021/07/03 03:21:36;;;;;;;6.80;4.88;;;;;;;;;;6096760;29;20139;-75
2021/07/03 03:24:39;;;;;;;7.70;5.13;;;;;;;;;;6092227;29;20192;-76
2021/07/03 03:27:41;;;;;;;7.35;4.88;;;;;;;;;;6100489;29;20040;-76
2021/07/03 03:30:42;;;;;;;6.55;4.90;;;;;;;;;;6106920;29;20067;-77
2021/07/03 03:33:44;;;;;;;9.00;5.55;;;;;;;;;;6106920;29;20081;-74
2021/07/03 03:36:45;;;;;;;7.88;5.57;;;;;;;;;;6102275;29;20135;-73
2021/07/03 03:39:48;;;;;;;11.75;6.50;;;;;;;;;;6103650;29;20496;-74
2021/07/03 03:42:50;;;;;;;11.73;6.20;;;;;;;;;;6105216;29;20130;-76
2021/07/03 03:45:51;;;;;;;11.75;5.90;;;;;;;;;;6102216;29;20054;-77
2021/07/03 03:48:53;;;;;;;9.90;6.35;;;;;;;;;;6102194;29;20131;-73
2021/07/03 03:51:55;;;;;;;11.95;6.13;;;;;;;;;;6098342;29;20119;-75
2021/07/03 03:54:58;;;;;;;11.80;5.85;;;;;;;;;;6099627;29;20143;-74
2021/07/03 03:57:59;;;;;;;12.15;5.78;;;;;;;;;;6106796;29;20425;-74
2021/07/03 04:01:07;;;;;;;12.75;5.28;;;;;;;;;;6097743;29;20135;-76
2021/07/03 04:04:09;;;;;;;8.30;5.13;;;;;;;;;;6099951;29;20182;-73
2021/07/03 04:07:10;;;;;;;8.93;5.32;;;;;;;;;;6103591;29;20119;-74
2021/07/03 04:10:15;;;;;;;13.63;4.65;;;;;;;;;;6105126;29;20484;-74
2021/07/03 04:13:16;;;;;;;8.38;4.65;;;;;;;;;;6102379;29;20055;-74
2021/07/03 04:16:18;;;;;;;7.45;4.55;;;;;;;;;;6100666;29;20091;-74
2021/07/03 04:19:19;;;;;;;7.20;4.03;;;;;;;;;;6096719;29;20128;-74
2021/07/03 04:22:21;;;;;;;9.70;4.53;;;;;;;;;;6101113;29;20204;-76
2021/07/03 04:25:25;;;;;;;8.00;4.28;;;;;;;;;;6098293;29;20057;-75
2021/07/03 04:28:27;;;;;;;8.20;4.30;;;;;;;;;;6105371;29;20056;-75
2021/07/03 04:31:28;;;;;;;8.07;4.60;;;;;;;;;;6101625;29;20521;-75
2021/07/03 04:34:30;;;;;;;10.13;3.80;;;;;;;;;;6096923;29;20099;-75
2021/07/03 04:37:31;;;;;;;6.28;3.50;;;;;;;;;;6102806;29;20207;-76
2021/07/03 04:40:35;;;;;;;7.05;3.80;;;;;;;;;;6105964;29;20130;-75
2021/07/03 04:43:36;;;;;;;8.50;3.38;;;;;;;;;;6100899;29;20060;-74
2021/07/03 04:46:38;;;;;;;7.15;3.70;;;;;;;;;;6101411;29;20099;-74
2021/07/03 04:49:40;;;;;;;8.15;3.53;;;;;;;;;;6094448;29;20059;-79
2021/07/03 04:52:41;;;;;;;8.25;3.40;;;;;;;;;;6098086;29;20104;-76
2021/07/03 04:55:44;;;;;;;4.22;2.85;;;;;;;;;;6098108;29;20191;-73
2021/07/03 04:58:46;;;;;;;6.47;2.97;;;;;;;;;;6096586;29;20084;-75
2021/07/03 05:01:47;;;;;;;4.32;2.92;;;;;;;;;;6095290;29;20056;-78
2021/07/03 05:04:49;;;;;;;6.55;3.42;;;;;;;;;;6096998;29;20214;-74
2021/07/03 05:07:50;;;;;;;13.80;3.53;;;;;;;;;;6098340;29;20140;-74
2021/07/03 05:10:53;;;;;;;6.60;2.97;;;;;;;;;;6103980;29;20180;-74
2021/07/03 05:13:55;;;;;;;10.55;2.80;;;;;;;;;;6096271;29;20139;-74
2021/07/03 05:16:57;;;;;;;6.22;3.03;;;;;;;;;;6101178;29;20184;-76
2021/07/03 05:19:58;;;;;;;6.80;2.58;;;;;;;;;;6101148;29;20220;-74
2021/07/03 05:23:00;;;;;;;6.63;2.47;;;;;;;;;;6104088;29;20367;-74
2021/07/03 05:26:03;;;;;;;6.05;3.13;;;;;;;;;;6097332;29;20144;-74
2021/07/03 05:29:05;;;;;;;5.32;2.80;;;;;;;;;;6111105;29;20130;-75
2021/07/03 05:32:08;;;;;;;5.68;2.90;;;;;;;;;;6105408;29;20036;-74
2021/07/03 05:35:11;;;;;;;4.77;2.67;;;;;;;;;;6094109;29;20052;-74
2021/07/03 05:38:12;;;;;;;5.32;2.80;;;;;;;;;;6102107;29;20050;-75
2021/07/03 05:41:17;;;;;;;7.65;2.70;;;;;;;;;;6097639;29;20188;-74
2021/07/03 05:44:20;;;;;;;5.13;2.92;;;;;;;;;;6086700;29;20056;-74
2021/07/03 05:47:22;;;;;;;5.03;2.60;;;;;;;;;;6087606;29;20405;-77
2021/07/03 05:50:26;;;;;;;8.07;2.80;;;;;;;;;;6094379;29;20080;-74
2021/07/03 05:53:27;;;;;;;5.78;3.00;;;;;;;;;;6098747;29;20192;-78
2021/07/03 05:56:30;;;;;;;7.13;3.47;;;;;;;;;;6091803;29;20080;-74
2021/07/03 05:59:32;;;;;;;4.55;2.60;;;;;;;;;;6098221;29;20052;-74
2021/07/03 06:02:34;;;;;;;4.75;2.50;;;;;;;;;;6099417;29;20057;-75
2021/07/03 06:05:36;;;;;;;5.67;3.00;;;;;;;;;;6094351;29;20143;-74
2021/07/03 06:08:37;;;;;;;4.15;2.70;;;;;;;;;;6074679;29;20146;-74
2021/07/03 06:11:41;;;;;;;7.10;3.13;;;;;;;;;;6097916;29;20131;-75
2021/07/03 06:14:42;;;;;;;7.45;2.47;;;;;;;;;;6095937;29;20943;-75
2021/07/03 06:17:44;;;;;;;7.07;3.03;;;;;;;;;;6099551;29;21576;-74
2021/07/03 06:20:45;;;;;;;6.72;2.95;;;;;;;;;;6094158;29;20136;-74
2021/07/03 06:23:47;;;;;;;8.20;3.35;;;;;;;;;;6096810;29;20120;-74
2021/07/03 06:26:50;;;;;;;6.43;3.17;;;;;;;;;;6093416;29;20510;-74
2021/07/03 06:29:51;;;;;;;6.03;3.35;;;;;;;;;;6095680;29;20532;-75
2021/07/03 06:32:53;;;;;;;5.78;3.85;;;;;;;;;;6096737;29;20131;-75
2021/07/03 06:35:55;;;;;;;5.85;3.70;;;;;;;;;;6097769;29;20131;-75
2021/07/03 06:38:56;;;;;;;6.40;3.75;;;;;;;;;;6094975;29;20131;-75
2021/07/03 06:41:59;;;;;;;5.13;3.58;;;;;;;;;;6098310;29;20109;-75
2021/07/03 06:45:01;;;;;;;6.20;3.60;;;;;;;;;;6098123;29;20049;-74
2021/07/03 06:48:03;;;;;;;7.43;3.60;;;;;;;;;;6091363;29;20052;-73
2021/07/03 06:51:07;;;;;;;10.30;3.83;;;;;;;;;;6098385;29;20160;-74
2021/07/03 06:54:08;;;;;;;4.57;3.53;;;;;;;;;;6093864;29;20104;-73
2021/07/03 06:57:12;;;;;;;6.07;3.80;;;;;;;;;;6100622;29;20077;-72
2021/07/03 07:00:14;;;;;;;6.28;3.72;;;;;;;;;;6101429;29;20076;-72
2021/07/03 07:03:16;;;;;;;7.95;3.78;;;;;;;;;;6097434;29;20094;-72
2021/07/03 07:06:17;;;;;;;6.10;3.28;;;;;;;;;;6091101;29;20526;-71
2021/07/03 07:09:19;;;;;;;9.35;3.75;;;;;;;;;;6098736;29;20099;-72
2021/07/03 07:12:22;;;;;;;6.88;3.78;;;;;;;;;;6091582;29;20079;-71
2021/07/03 07:15:25;;;;;;;5.70;3.72;;;;;;;;;;6097230;29;20048;-70
2021/07/03 07:18:26;;;;;;;8.32;3.80;;;;;;;;;;6089443;29;20066;-71
2021/07/03 07:21:28;;;;;;;8.40;4.38;;;;;;;;;;6105114;29;20131;-72
2021/07/03 07:24:30;;;;;;;5.95;3.90;;;;;;;;;;6098545;29;20052;-71
2021/07/03 07:27:33;;;;;;;7.28;4.28;;;;;;;;;;6098375;29;20119;-71
2021/07/03 07:30:34;;;;;;;5.03;3.90;;;;;;;;;;6095623;29;20052;-72
2021/07/03 07:33:36;;;;;;;4.85;4.28;;;;;;;;;;6096183;29;20102;-72
2021/07/03 07:36:37;;;;;;;6.72;3.35;;;;;;;;;;6091408;29;20419;-71
2021/07/03 07:39:40;;;;;;;7.13;3.63;;;;;;;;;;6097041;29;20496;-71
2021/07/03 07:42:43;;;;;;;6.80;3.70;;;;;;;;;;6094780;29;20064;-71
2021/07/03 07:45:45;;;;;;;6.22;3.00;;;;;;;;;;6093958;29;20053;-71
2021/07/03 07:48:46;;;;;;;7.07;3.08;;;;;;;;;;6092689;29;20066;-72
2021/07/03 07:51:48;;;;;;;7.00;3.00;;;;;;;;;;6097399;29;20179;-71
2021/07/03 07:54:49;;;;;;;5.47;3.70;;;;;;;;;;6104638;29;20572;-72
2021/07/03 07:57:53;;;;;;;5.88;3.03;;;;;;;;;;6093866;29;20200;-72
2021/07/03 08:00:54;;;;;;;;;;;;;;;;;;6092904;29;20051;-72
2021/07/03 08:03:56;;;;;;;5.03;3.22;;;;;;;;;;6094839;29;19923;-71
2021/07/03 08:06:57;;;;;;;5.78;3.92;;;;;;;;;;6087759;29;20143;-72
2021/07/03 08:09:59;;;;;;;5.72;3.95;;;;;;;;;;6094188;29;20048;-72
2021/07/03 08:13:02;;;;;;;5.43;4.20;;;;;;;;;;6093088;29;20044;-72
2021/07/03 08:16:04;;;;;;;4.35;3.65;;;;;;;;;;6096468;29;20044;-71
2021/07/03 08:19:05;;;;;;;7.82;3.58;;;;;;;;;;6093662;29;20560;-72
2021/07/03 08:22:07;;;;;;;6.53;3.55;;;;;;;;;;6092409;29;20056;-72
2021/07/03 08:25:10;;;;;;;8.43;3.72;;;;;;;;;;6096973;29;20122;-72
2021/07/03 08:28:13;;;;;;;;;;;;;;;;;;6093145;29;20653;-71
2021/07/03 08:31:16;;;;;;;8.88;4.28;;;;;;;;;;6086481;29;19993;-72
2021/07/03 08:34:17;;;;;;;6.30;3.50;;;;;;;;;;6094493;29;20052;-72
2021/07/03 08:37:19;;;;;;;7.28;4.03;;;;;;;;;;6097805;29;20138;-72
2021/07/03 08:40:21;;;;;;;7.50;5.18;;;;;;;;;;6095468;29;20079;-72
2021/07/03 08:43:24;;;;;;;8.77;5.30;;;;;;;;;;6093468;29;20187;-71
2021/07/03 08:46:28;;;;;;;;;;;;;;;;;;6092161;29;20232;-73
2021/07/03 08:49:30;;;;;;;5.72;5.00;;;;;;;;;;6095335;29;20379;-72
2021/07/03 08:52:31;;;;;;;9.02;5.90;;;;;;;;;;6091945;29;20115;-72
2021/07/03 08:55:34;;;;;;;8.85;5.15;;;;;;;;;;6090840;29;20052;-71
2021/07/03 08:58:37;;;;;;;7.18;4.65;;;;;;;;;;6089557;29;20056;-72
2021/07/03 09:01:48;;;;;;;9.27;5.15;;;;;;;;;;6097063;29;20484;-72
2021/07/03 09:04:49;;;;;;;9.02;5.30;;;;;;;;;;6091895;29;20161;-72
2021/07/03 09:07:51;;;;;;;10.55;5.60;;;;;;;;;;6091767;29;20166;-72
2021/07/03 09:11:04;;;;;;;7.70;5.70;;;;;;;;;;6095625;29;20048;-71
2021/07/03 09:14:07;;;;;;;11.32;5.65;;;;;;;;;;6090427;29;21293;-72
2021/07/03 09:17:15;;;;;;;10.93;3.40;;;;;;;;;;6097002;29;20044;-72
2021/07/03 09:20:28;;;;;;;5.65;4.22;;;;;;;;;;6096299;29;20130;-72
2021/07/03 09:23:32;;;;;;;10.20;5.05;;;;;;;;;;6094902;29;20138;-71
2021/07/03 09:26:34;;;;;;;7.50;5.47;;;;;;;;;;6092554;29;20119;-71
2021/07/03 09:29:37;;;;;;;7.63;4.78;;;;;;;;;;6089013;29;20672;-71
2021/07/03 09:32:38;;;;;;;;;;;;;;;;;;6097872;29;20108;-74
2021/07/03 09:35:40;;;;;;;5.93;5.13;;;;;;;;;;6092613;29;20009;-70
2021/07/03 09:38:44;;;;;;;6.40;3.72;;;;;;;;;;6088203;29;20044;-72
2021/07/03 09:41:46;;;;;;;6.68;3.30;;;;;;;;;;6086688;29;20590;-72
2021/07/03 09:44:57;;;;;;;8.10;3.73;;;;;;;;;;6087916;29;20044;-72
2021/07/03 09:48:10;;;;;;;7.68;3.92;;;;;;;;;;6087879;29;20058;-72
2021/07/03 09:51:12;;;;;;;11.90;3.63;;;;;;;;;;6093086;29;20202;-72
2021/07/03 09:54:15;;;;;;;6.35;3.35;;;;;;;;;;6081197;29;20063;-72
2021/07/03 09:57:17;;;;;;;6.65;4.35;;;;;;;;;;6091571;29;20053;-74
2021/07/03 10:00:21;;;;;;;9.50;3.35;;;;;;;;;;6090530;29;20048;-72
2021/07/03 10:03:22;;;;;;;10.00;3.45;;;;;;;;;;6090372;29;20056;-73
2021/07/03 10:06:29;;;;;;;6.65;4.13;;;;;;;;;;6085824;29;20409;-73
2021/07/03 10:09:34;;;;;;;8.23;4.43;;;;;;;;;;6098107;29;20173;-73
2021/07/03 10:12:37;;;;;;;6.32;3.90;;;;;;;;;;6092591;29;20143;-72
2021/07/03 10:15:40;;;;;;;9.43;4.00;;;;;;;;;;6092108;29;20550;-73
2021/07/03 10:18:42;;;;;;;6.88;3.53;;;;;;;;;;6091775;29;20589;-72
2021/07/03 10:21:45;;;;;;;6.85;3.67;;;;;;;;;;6094369;29;20051;-72
2021/07/03 10:24:50;;;;;;;6.70;3.85;;;;;;;;;;6074294;29;20135;-72
2021/07/03 10:27:53;;;;;;;6.22;4.55;;;;;;;;;;6097494;29;20184;-73
2021/07/03 10:31:04;;;;;;;8.75;4.45;;;;;;;;;;6091884;29;20058;-73
2021/07/03 10:34:06;;;;;;;6.75;3.50;;;;;;;;;;6094463;29;20071;-72
2021/07/03 10:37:07;;;;;;;6.82;3.47;;;;;;;;;;6081907;29;20051;-73
2021/07/03 10:40:16;;;;;;;5.88;3.80;;;;;;;;;;6088996;29;20044;-73
2021/07/03 10:43:18;;;;;;;7.95;2.90;;;;;;;;;;6087663;29;20099;-73
2021/07/03 10:46:32;;;;;;;8.70;4.40;;;;;;;;;;6093518;29;20668;-72
2021/07/03 10:49:35;;;;;;;6.70;2.88;;;;;;;;;;6088702;29;20459;-72
2021/07/03 10:52:40;;;;;;;6.38;2.80;;;;;;;;;;6094647;29;20062;-72
2021/07/03 10:55:42;;;;;;;9.07;2.65;;;;;;;;;;6086420;29;20496;-72
2021/07/03 10:58:44;;;;;;;6.20;3.08;;;;;;;;;;6095221;29;20044;-73
2021/07/03 11:01:47;;;;;;;5.15;3.95;;;;;;;;;;6089533;29;20080;-71
2021/07/03 11:04:50;;;;;;;5.80;2.85;;;;;;;;;;6089173;29;20193;-71
2021/07/03 11:07:52;;;;;;;6.15;2.80;;;;;;;;;;6080963;29;20048;-72
2021/07/03 11:10:53;;;;;;;9.07;2.20;;;;;;;;;;6088626;29;20209;-71
2021/07/03 11:13:56;;;;;;;20.98;2.60;;;;;;;;;;6091396;29;20528;-72
2021/07/03 11:16:59;;;;;;;6.13;2.42;;;;;;;;;;6090601;29;20183;-72
2021/07/03 11:20:00;;;;;;;7.20;3.28;;;;;;;;;;6107347;29;20043;-73
2021/07/03 11:23:04;;;;;;;6.88;3.78;;;;;;;;;;6100087;29;20182;-75
2021/07/03 11:26:10;;;;;;;7.85;4.00;;;;;;;;;;6102564;29;20179;-74
2021/07/03 11:29:12;;;;;;;5.07;3.40;;;;;;;;;;6105751;29;20048;-72
2021/07/03 11:32:15;;;;;;;5.30;3.57;;;;;;;;;;6097776;29;20271;-75
2021/07/03 11:35:16;;;;;;;7.55;3.05;;;;;;;;;;6094874;29;20072;-73
2021/07/03 11:38:20;;;;;;;7.10;2.53;;;;;;;;;;6096092;29;20143;-74
2021/07/03 11:41:23;;;;;;;9.07;2.83;;;;;;;;;;6093615;29;20564;-74
2021/07/03 11:44:25;;;;;;;5.80;2.97;;;;;;;;;;6105576;29;20052;-74
2021/07/03 11:47:39;;;;;;;6.32;2.83;;;;;;;;;;6102699;29;20052;-74
2021/07/03 11:50:42;;;;;;;7.50;2.00;;;;;;;;;;6102238;29;20135;-73
2021/07/03 11:53:46;;;;;;;4.85;3.00;;;;;;;;;;6101866;29;20505;-73
2021/07/03 11:56:56;;;;;;;4.88;3.03;;;;;;;;;;6099015;29;20126;-74
2021/07/03 11:59:58;;;;;;;7.90;2.88;;;;;;;;;;6099409;29;20211;-74
2021/07/03 12:03:08;;;;;;;4.80;2.60;;;;;;;;;;6095292;29;20068;-73
2021/07/03 12:06:10;;;;;;;6.68;2.80;;;;;;;;;;6092854;29;20534;-74
2021/07/03 12:09:12;;;;;;;4.05;2.30;;;;;;;;;;6099326;29;20135;-74
2021/07/03 12:12:13;;;;;;;5.83;2.70;;;;;;;;;;6088888;29;20044;-74
2021/07/03 12:15:15;;;;;;;3.33;2.15;;;;;;;;;;6104888;29;20607;-74
2021/07/03 12:18:28;;;;;;;7.93;2.80;;;;;;;;;;6101488;29;20119;-73
2021/07/03 12:21:34;;;;;;;5.15;2.63;;;;;;;;;;6105739;29;20054;-74
2021/07/03 12:24:35;;;;;;;6.13;3.20;;;;;;;;;;6098277;29;20052;-74
2021/07/03 12:27:37;;;;;;;4.68;2.30;;;;;;;;;;6107591;29;20453;-74
2021/07/03 12:30:39;;;;;;;5.90;2.17;;;;;;;;;;6113001;29;20087;-74
2021/07/03 12:33:41;;;;;;;6.03;2.60;;;;;;;;;;6111939;29;20211;-74
2021/07/03 12:36:47;;;;;;;6.55;2.92;;;;;;;;;;6105128;29;20192;-73
2021/07/03 12:39:52;;;;;;;6.05;2.80;;;;;;;;;;6118869;29;20070;-73
2021/07/03 12:42:59;;;;;;;4.32;1.92;;;;;;;;;;6099925;29;20508;-73
2021/07/03 12:46:01;;;;;;;5.88;2.30;;;;;;;;;;6098919;29;20069;-73
2021/07/03 12:49:05;;;;;;;7.43;2.20;;;;;;;;;;6102580;29;20115;-73
2021/07/03 12:52:09;;;;;;;3.83;2.30;;;;;;;;;;6095354;29;20054;-73
2021/07/03 12:55:12;;;;;;;6.60;2.35;;;;;;;;;;6093675;29;20532;-72
2021/07/03 12:58:20;;;;;;;;;;;;;;;;;;6096071;29;20167;-72
2021/07/03 13:01:31;;;;;;;3.47;2.67;;;;;;;;;;6091515;29;19982;-73
2021/07/03 13:04:34;;;;;;;5.68;2.38;;;;;;;;;;6093189;29;20123;-73
2021/07/03 13:07:35;;;;;;;3.25;2.10;;;;;;;;;;6101096;29;20099;-73
2021/07/03 13:10:37;;;;;;;6.13;2.10;;;;;;;;;;6100427;29;20048;-73
2021/07/03 13:13:38;;;;;;;5.15;2.67;;;;;;;;;;6094541;29;20191;-72
2021/07/03 13:16:40;;;;;;;4.57;2.15;;;;;;;;;;6096632;29;20048;-73
2021/07/03 13:19:43;;;;;;;3.45;2.38;;;;;;;;;;6100776;29;20119;-73
2021/07/03 13:22:45;;;;;;;6.13;2.33;;;;;;;;;;6103778;29;20056;-73
2021/07/03 13:25:46;;;;;;;5.35;1.90;;;;;;;;;;6100921;29;20096;-73
2021/07/03 13:28:48;;;;;;;7.70;2.28;;;;;;;;;;6101675;29;20131;-72
2021/07/03 13:31:49;;;;;;;4.45;2.10;;;;;;;;;;6103437;29;20139;-73
2021/07/03 13:34:52;;;;;;;8.70;3.28;;;;;;;;;;6101818;29;20058;-72
2021/07/03 13:37:54;;;;;;;5.82;2.20;;;;;;;;;;6101092;29;20052;-72
2021/07/03 13:40:55;;;;;;;3.17;1.92;;;;;;;;;;6101568;29;20146;-72
2021/07/03 13:43:57;;;;;;;3.85;2.28;;;;;;;;;;6102987;29;20131;-72
2021/07/03 13:46:59;;;;;;;4.03;1.92;;;;;;;;;;6101099;29;20134;-73
2021/07/03 13:50:02;;;;;;;4.85;2.13;;;;;;;;;;6098614;29;20059;-72
2021/07/03 13:53:08;;;;;;;6.15;1.90;;;;;;;;;;6101480;29;20040;-73
2021/07/03 13:56:10;;;;;;;11.60;2.20;;;;;;;;;;6103186;29;20051;-73
2021/07/03 13:59:11;;;;;;;6.50;2.28;;;;;;;;;;6105603;29;20445;-73
2021/07/03 14:02:13;;;;;;;5.20;2.40;;;;;;;;;;6099783;29;20099;-72
2021/07/03 14:05:16;;;;;;;3.15;2.00;;;;;;;;;;6103150;29;20047;-72
2021/07/03 14:08:18;;;;;;;6.97;2.13;;;;;;;;;;6099144;29;20150;-72
2021/07/03 14:11:19;;;;;;;4.95;2.50;;;;;;;;;;6105820;29;20116;-73
2021/07/03 14:14:22;;;;;;;8.68;2.22;;;;;;;;;;6094368;29;20152;-73
2021/07/03 14:17:23;;;;;;;4.88;2.45;;;;;;;;;;6093311;29;20138;-73
2021/07/03 14:20:26;;;;;;;4.20;2.35;;;;;;;;;;6105186;29;20130;-73
2021/07/03 14:23:28;;;;;;;5.45;2.40;;;;;;;;;;6083551;29;20044;-73
2021/07/03 14:26:32;;;;;;;5.40;2.25;;;;;;;;;;6095255;29;20052;-73
2021/07/03 14:29:33;;;;;;;8.38;2.40;;;;;;;;;;6092104;29;20118;-74
2021/07/03 14:32:35;;;;;;;5.32;2.40;;;;;;;;;;6089819;29;20192;-74
2021/07/03 14:35:38;;;;;;;5.65;2.40;;;;;;;;;;6090282;29;20537;-72
2021/07/03 14:38:39;;;;;;;5.60;2.40;;;;;;;;;;6092902;29;20181;-73
2021/07/03 14:41:41;;;;;;;3.17;2.00;;;;;;;;;;6089083;29;20044;-73
2021/07/03 14:44:43;;;;;;;4.93;2.42;;;;;;;;;;6097539;29;20422;-73
2021/07/03 14:47:45;;;;;;;2.95;2.28;;;;;;;;;;6099513;29;20522;-74
2021/07/03 14:50:48;;;;;;;5.30;2.00;;;;;;;;;;6100319;29;20066;-73
2021/07/03 14:53:50;;;;;;;9.00;2.20;;;;;;;;;;6110602;29;20143;-73
2021/07/03 14:56:54;;;;;;;3.60;1.90;;;;;;;;;;6107829;29;20048;-73
2021/07/03 14:59:56;;;;;;;4.43;1.95;;;;;;;;;;6103028;29;20407;-73
2021/07/03 15:02:57;;;;;;;5.93;2.35;;;;;;;;;;6105385;29;20144;-74
2021/07/03 15:06:00;;;;;;;7.90;1.83;;;;;;;;;;6103458;29;20052;-75
2021/07/03 15:09:02;;;;;;;3.65;1.90;;;;;;;;;;6103824;29;20076;-72
2021/07/03 15:12:04;;;;;;;6.97;2.20;;;;;;;;;;6101927;29;20066;-73
2021/07/03 15:15:07;;;;;;;5.28;2.53;;;;;;;;;;6101697;29;20119;-75
2021/07/03 15:18:08;;;;;;;;;;;;;;;;;;6105271;29;20056;-73
2021/07/03 15:21:11;;;;;;;7.15;2.15;;;;;;;;;;6099494;29;20014;-73
2021/07/03 15:24:15;;;;;;;4.20;1.90;;;;;;;;;;6106651;29;20123;-75
2021/07/03 15:27:17;;;;;;;4.70;2.42;;;;;;;;;;6097728;29;20067;-73
2021/07/03 15:30:20;;;;;;;5.75;2.20;;;;;;;;;;6098148;29;20143;-73
2021/07/03 15:33:22;;;;;;;3.92;1.98;;;;;;;;;;6096473;29;20041;-71
2021/07/03 15:36:25;;;;;;;3.60;1.60;;;;;;;;;;6110232;29;20048;-72
2021/07/03 15:39:27;;;;;;;5.45;1.90;;;;;;;;;;6093515;29;20555;-73
2021/07/03 15:42:30;;;;;;;3.95;1.95;;;;;;;;;;6105215;29;20413;-73
2021/07/03 15:45:31;;;;;;;6.05;1.92;;;;;;;;;;6104866;29;20136;-72
2021/07/03 15:48:33;;;;;;;5.22;2.00;;;;;;;;;;6099746;29;20118;-73
2021/07/03 15:51:36;;;;;;;5.32;2.05;;;;;;;;;;6093181;29;20602;-73
2021/07/03 15:54:38;;;;;;;5.10;2.33;;;;;;;;;;6105669;29;20064;-72
2021/07/03 15:57:40;;;;;;;3.10;1.80;;;;;;;;;;6113305;29;20058;-73
2021/07/03 16:00:41;;;;;;;3.13;2.35;;;;;;;;;;6100764;29;20098;-72
2021/07/03 16:03:43;;;;;;;4.90;2.10;;;;;;;;;;6095947;29;20135;-72
2021/07/03 16:06:46;;;;;;;4.05;1.90;;;;;;;;;;6100661;29;20183;-74
2021/07/03 16:09:47;;;;;;;5.88;2.25;;;;;;;;;;6106726;29;20075;-72
2021/07/03 16:12:50;;;;;;;5.15;2.00;;;;;;;;;;6104248;29;20099;-73
2021/07/03 16:15:51;;;;;;;5.88;3.00;;;;;;;;;;6106461;29;20078;-70
2021/07/03 16:18:53;;;;;;;8.82;2.53;;;;;;;;;;6105534;29;20099;-75
2021/07/03 16:21:56;;;;;;;5.10;2.17;;;;;;;;;;6100146;29;20074;-75
2021/07/03 16:24:57;;;;;;;5.28;2.25;;;;;;;;;;6107258;29;20040;-73
2021/07/03 16:27:59;;;;;;;4.25;2.40;;;;;;;;;;6108105;29;20052;-75
2021/07/03 16:31:01;;;;;;;5.70;2.35;;;;;;;;;;6109743;28;20080;-75
2021/07/03 16:34:02;;;;;;;3.03;2.10;;;;;;;;;;6103023;29;20172;-73
2021/07/03 16:37:06;;;;;;;5.20;2.20;;;;;;;;;;6097439;29;20146;-73
2021/07/03 16:40:08;;;;;;;4.82;2.40;;;;;;;;;;6104610;29;20135;-73
2021/07/03 16:43:10;;;;;;;8.93;2.35;;;;;;;;;;6103143;29;20052;-74
2021/07/03 16:46:11;;;;;;;4.53;2.65;;;;;;;;;;6099033;29;20048;-72
2021/07/03 16:49:13;;;;;;;3.50;2.58;;;;;;;;;;6094935;29;20052;-72
2021/07/03 16:52:16;;;;;;;5.22;2.50;;;;;;;;;;6091464;29;20053;-72
2021/07/03 16:55:18;;;;;;;7.78;2.67;;;;;;;;;;6093644;29;20112;-72
2021/07/03 16:58:20;;;;;;;6.57;2.42;;;;;;;;;;6096543;29;20121;-72
2021/07/03 17:01:21;;;;;;;6.63;2.40;;;;;;;;;;6094040;29;20524;-73
2021/07/03 17:04:23;;;;;;;3.83;2.33;;;;;;;;;;6107123;29;20072;-72
2021/07/03 17:07:26;;;;;;;5.32;2.78;;;;;;;;;;6107463;29;20119;-72
2021/07/03 17:10:28;;;;;;;6.13;2.60;;;;;;;;;;6103829;29;20071;-73
2021/07/03 17:13:30;;;;;;;9.40;3.05;;;;;;;;;;6095286;29;20094;-72
2021/07/03 17:16:31;;;;;;;7.40;2.85;;;;;;;;;;6090717;29;20466;-73
2021/07/03 17:19:33;;;;;;;5.18;2.53;;;;;;;;;;6087485;29;20068;-73
2021/07/03 17:22:36;;;;;;;4.47;2.65;;;;;;;;;;6091883;29;20044;-73
2021/07/03 17:25:38;;;;;;;5.13;3.17;;;;;;;;;;6074746;29;20052;-74
2021/07/03 17:28:40;;;;;;;6.40;2.50;;;;;;;;;;6086942;29;20051;-72
2021/07/03 17:31:41;;;;;;;10.38;3.63;;;;;;;;;;6097261;29;20060;-74
2021/07/03 17:34:43;;;;;;;4.90;2.33;;;;;;;;;;6090727;29;20135;-73
2021/07/03 17:37:46;;;;;;;5.82;2.45;;;;;;;;;;6090479;29;20099;-73
2021/07/03 17:40:49;;;;;;;5.88;2.63;;;;;;;;;;6091382;29;20972;-73
2021/07/03 17:43:50;;;;;;;7.60;3.28;;;;;;;;;;6096072;29;20051;-72
2021/07/03 17:46:52;;;;;;;11.07;3.00;;;;;;;;;;6093170;29;20069;-72
2021/07/03 17:49:53;;;;;;;10.00;2.55;;;;;;;;;;6093668;29;20087;-72
2021/07/03 17:52:56;;;;;;;5.93;2.35;;;;;;;;;;6096370;29;20175;-72
2021/07/03 17:55:58;;;;;;;3.80;2.13;;;;;;;;;;6093766;29;20492;-75
2021/07/03 17:59:00;;;;;;;6.22;2.47;;;;;;;;;;6089766;29;20135;-72
2021/07/03 18:02:03;;;;;;;4.28;2.50;;;;;;;;;;6091232;29;20176;-72
2021/07/03 18:05:05;;;;;;;3.35;2.05;;;;;;;;;;6099412;29;20123;-73
2021/07/03 18:08:12;;;;;;;6.30;2.45;;;;;;;;;;6099708;29;20309;-73
2021/07/03 18:11:13;;;;;;;3.92;2.58;;;;;;;;;;6098321;29;20053;-73
2021/07/03 18:14:16;;;;;;;11.20;3.25;;;;;;;;;;6097355;29;20074;-73